Aviation Digital Data Service (ADDS)

Output produced by METARs form (1602 UTC 23 January 2019)
found at http://www.aviationweather.gov/metar/data/
 
METAR text: ETHB 231520Z 07010KT 7000 SCT130 BKN230 M04/M07 Q1002 WHT BLU TEMPO GRN
Conditions at: ETHB (BUCKEBURG(GER-AR, DE) observed 1520 UTC 23 January 2019
Temperature: -4.0°C (25°F)
Dewpoint: -7.0°C (19°F) [RH = 80%]
Pressure (altimeter): 29.59 inches Hg (1002.0 mb)
Winds: from the ENE (70 degrees) at 12 MPH (10 knots; 5.1 m/s)
Visibility: 4 miles ( 7 km)
Ceiling: 23000 feet AGL
Clouds: scattered clouds at 13000 feet AGL
broken clouds at 23000 feet AGL
Weather: no significant weather observed at this time

METAR text: ETHB 231502Z 08010KT 7000 SCT130 BKN230 M04/M07 Q1002 WHT BLU+ TEMPO GRN
Conditions at: ETHB (BUCKEBURG(GER-AR, DE) observed 1502 UTC 23 January 2019
Temperature: -4.0°C (25°F)
Dewpoint: -7.0°C (19°F) [RH = 80%]
Pressure (altimeter): 29.59 inches Hg (1002.0 mb)
Winds: from the E (80 degrees) at 12 MPH (10 knots; 5.1 m/s)
Visibility: 4 miles ( 7 km)
Ceiling: 23000 feet AGL
Clouds: scattered clouds at 13000 feet AGL
broken clouds at 23000 feet AGL
Weather: no significant weather observed at this time

METAR text: ETHB 231420Z 07010KT 9999 FEW018 SCT110 BKN220 M04/M07 Q1001 BLU+BLU+ TEMPO GRN
Conditions at: ETHB (BUCKEBURG(GER-AR, DE) observed 1420 UTC 23 January 2019
Temperature: -4.0°C (25°F)
Dewpoint: -7.0°C (19°F) [RH = 80%]
Pressure (altimeter): 29.56 inches Hg (1001.0 mb)
Winds: from the ENE (70 degrees) at 12 MPH (10 knots; 5.1 m/s)
Visibility: 6 or more miles (10+ km)
Ceiling: 22000 feet AGL
Clouds: few clouds at 1800 feet AGL
scattered clouds at 11000 feet AGL
broken clouds at 22000 feet AGL
Weather: no significant weather observed at this time

METAR text: ETHB 231320Z 07006KT 9999 SCT018 BKN120 BKN250 M03/M07 Q1001 BLU BLU+ TEMPO GRN
Conditions at: ETHB (BUCKEBURG(GER-AR, DE) observed 1320 UTC 23 January 2019
Temperature: -3.0°C (27°F)
Dewpoint: -7.0°C (19°F) [RH = 74%]
Pressure (altimeter): 29.56 inches Hg (1001.0 mb)
Winds: from the ENE (70 degrees) at 7 MPH (6 knots; 3.1 m/s)
Visibility: 6 or more miles (10+ km)
Ceiling: 12000 feet AGL
Clouds: scattered clouds at 1800 feet AGL
broken clouds at 12000 feet AGL
broken clouds at 25000 feet AGL
Weather: no significant weather observed at this time

METAR text: ETHB 231259Z 09005KT 9999 SCT018 SCT120 BKN250 M03/M07 Q1001 BLU+BLU+ TEMPO GRN
Conditions at: ETHB (BUCKEBURG(GER-AR, DE) observed 1259 UTC 23 January 2019
Temperature: -3.0°C (27°F)
Dewpoint: -7.0°C (19°F) [RH = 74%]
Pressure (altimeter): 29.56 inches Hg (1001.0 mb)
Winds: from the E (90 degrees) at 6 MPH (5 knots; 2.6 m/s)
Visibility: 6 or more miles (10+ km)
Ceiling: 25000 feet AGL
Clouds: scattered clouds at 1800 feet AGL
scattered clouds at 12000 feet AGL
broken clouds at 25000 feet AGL
Weather: no significant weather observed at this time

METAR text: ETHB 231220Z 15006KT 9999 SCT018 SCT140 BKN200 M03/M08 Q1001 BLU+BLU+ TEMPO GRN
Conditions at: ETHB (BUCKEBURG(GER-AR, DE) observed 1220 UTC 23 January 2019
Temperature: -3.0°C (27°F)
Dewpoint: -8.0°C (18°F) [RH = 68%]
Pressure (altimeter): 29.56 inches Hg (1001.0 mb)
Winds: from the SSE (150 degrees) at 7 MPH (6 knots; 3.1 m/s)
Visibility: 6 or more miles (10+ km)
Ceiling: 20000 feet AGL
Clouds: scattered clouds at 1800 feet AGL
scattered clouds at 14000 feet AGL
broken clouds at 20000 feet AGL
Weather: no significant weather observed at this time

METAR text: ETHB 231120Z 17007KT 8000 FEW017 SCT130 BKN210 M03/M08 Q1001 BLU+BLU+ TEMPO GRN
Conditions at: ETHB (BUCKEBURG(GER-AR, DE) observed 1120 UTC 23 January 2019
Temperature: -3.0°C (27°F)
Dewpoint: -8.0°C (18°F) [RH = 68%]
Pressure (altimeter): 29.56 inches Hg (1001.0 mb)
Winds: from the S (170 degrees) at 8 MPH (7 knots; 3.6 m/s)
Visibility: 5 miles ( 8 km)
Ceiling: 21000 feet AGL
Clouds: few clouds at 1700 feet AGL
scattered clouds at 13000 feet AGL
broken clouds at 21000 feet AGL
Weather: no significant weather observed at this time

METAR text: ETHB 231020Z VRB03KT 8000 FEW140 BKN200 M04/M08 Q1001 BLU+BLU+ TEMPO GRN
Conditions at: ETHB (BUCKEBURG(GER-AR, DE) observed 1020 UTC 23 January 2019
Temperature: -4.0°C (25°F)
Dewpoint: -8.0°C (18°F) [RH = 74%]
Pressure (altimeter): 29.56 inches Hg (1001.0 mb)
Winds: variable direction winds at 3 MPH (3 knots; 1.5 m/s)
Visibility: 5 miles ( 8 km)
Ceiling: 20000 feet AGL
Clouds: few clouds at 14000 feet AGL
broken clouds at 20000 feet AGL
Weather: no significant weather observed at this time

METAR text: ETHB 230920Z VRB01KT 8000 FEW140 SCT180 M05/M08 Q1001 BLU+BLU+ TEMPO GRN
Conditions at: ETHB (BUCKEBURG(GER-AR, DE) observed 0920 UTC 23 January 2019
Temperature: -5.0°C (23°F)
Dewpoint: -8.0°C (18°F) [RH = 79%]
Pressure (altimeter): 29.56 inches Hg (1001.0 mb)
Winds: variable direction winds at 1 MPH (1 knots; 0.5 m/s)
Visibility: 5 miles ( 8 km)
Ceiling: at least 12,000 feet AGL
Clouds: few clouds at 14000 feet AGL
scattered clouds at 18000 feet AGL
Weather: no significant weather observed at this time

METAR text: ETHB 230820Z 06003KT 8000 FEW140 M06/M08 Q1000 BLU+BLU+ TEMPO GRN
Conditions at: ETHB (BUCKEBURG(GER-AR, DE) observed 0820 UTC 23 January 2019
Temperature: -6.0°C (21°F)
Dewpoint: -8.0°C (18°F) [RH = 86%]
Pressure (altimeter): 29.53 inches Hg (1000.0 mb)
Winds: from the ENE (60 degrees) at 3 MPH (3 knots; 1.5 m/s)
Visibility: 5 miles ( 8 km)
Ceiling: at least 12,000 feet AGL
Clouds: few clouds at 14000 feet AGL
Weather: no significant weather observed at this time

METAR text: ETHB 230720Z 14007KT 8000 FEW140 M05/M08 Q1000 BLU+BLU+ TEMPO GRN
Conditions at: ETHB (BUCKEBURG(GER-AR, DE) observed 0720 UTC 23 January 2019
Temperature: -5.0°C (23°F)
Dewpoint: -8.0°C (18°F) [RH = 79%]
Pressure (altimeter): 29.53 inches Hg (1000.0 mb)
Winds: from the SE (140 degrees) at 8 MPH (7 knots; 3.6 m/s)
Visibility: 5 miles ( 8 km)
Ceiling: at least 12,000 feet AGL
Clouds: few clouds at 14000 feet AGL
Weather: no significant weather observed at this time

METAR text: ETHB 230620Z VRB03KT 8000 SCT140 M05/M08 Q1000 BLU+BLU+ TEMPO GRN
Conditions at: ETHB (BUCKEBURG(GER-AR, DE) observed 0620 UTC 23 January 2019
Temperature: -5.0°C (23°F)
Dewpoint: -8.0°C (18°F) [RH = 79%]
Pressure (altimeter): 29.53 inches Hg (1000.0 mb)
Winds: variable direction winds at 3 MPH (3 knots; 1.5 m/s)
Visibility: 5 miles ( 8 km)
Ceiling: at least 12,000 feet AGL
Clouds: scattered clouds at 14000 feet AGL
Weather: no significant weather observed at this time

METAR text: ETHB 230520Z 15005KT 8000 FEW250 M05/M08 Q1000 BLU+BLU+ TEMPO GRN
Conditions at: ETHB (BUCKEBURG(GER-AR, DE) observed 0520 UTC 23 January 2019
Temperature: -5.0°C (23°F)
Dewpoint: -8.0°C (18°F) [RH = 79%]
Pressure (altimeter): 29.53 inches Hg (1000.0 mb)
Winds: from the SSE (150 degrees) at 6 MPH (5 knots; 2.6 m/s)
Visibility: 5 miles ( 8 km)
Ceiling: at least 12,000 feet AGL
Clouds: few clouds at 25000 feet AGL
Weather: no significant weather observed at this time

METAR text: ETHB 230420Z 17008KT 9000 FEW240 M05/M08 Q1000 BLU+
Conditions at: ETHB (BUCKEBURG(GER-AR, DE) observed 0420 UTC 23 January 2019
Temperature: -5.0°C (23°F)
Dewpoint: -8.0°C (18°F) [RH = 79%]
Pressure (altimeter): 29.53 inches Hg (1000.0 mb)
Winds: from the S (170 degrees) at 9 MPH (8 knots; 4.1 m/s)
Visibility: 6 miles ( 9 km)
Ceiling: at least 12,000 feet AGL
Clouds: few clouds at 24000 feet AGL
Weather: no significant weather observed at this time

METAR text: ETHB 230320Z 17008KT 9000 FEW240 M05/M08 Q1000 BLU+
Conditions at: ETHB (BUCKEBURG(GER-AR, DE) observed 0320 UTC 23 January 2019
Temperature: -5.0°C (23°F)
Dewpoint: -8.0°C (18°F) [RH = 79%]
Pressure (altimeter): 29.53 inches Hg (1000.0 mb)
Winds: from the S (170 degrees) at 9 MPH (8 knots; 4.1 m/s)
Visibility: 6 miles ( 9 km)
Ceiling: at least 12,000 feet AGL
Clouds: few clouds at 24000 feet AGL
Weather: no significant weather observed at this time

METAR text: ETHB 230220Z 16010KT 9999 FEW240 M04/M08 Q1000 BLU+
Conditions at: ETHB (BUCKEBURG(GER-AR, DE) observed 0220 UTC 23 January 2019
Temperature: -4.0°C (25°F)
Dewpoint: -8.0°C (18°F) [RH = 74%]
Pressure (altimeter): 29.53 inches Hg (1000.0 mb)
Winds: from the SSE (160 degrees) at 12 MPH (10 knots; 5.1 m/s)
Visibility: 6 or more miles (10+ km)
Ceiling: at least 12,000 feet AGL
Clouds: few clouds at 24000 feet AGL
Weather: no significant weather observed at this time

METAR text: ETHB 230120Z 17008KT 9999 FEW240 M04/M08 Q1001 BLU+
Conditions at: ETHB (BUCKEBURG(GER-AR, DE) observed 0120 UTC 23 January 2019
Temperature: -4.0°C (25°F)
Dewpoint: -8.0°C (18°F) [RH = 74%]
Pressure (altimeter): 29.56 inches Hg (1001.0 mb)
Winds: from the S (170 degrees) at 9 MPH (8 knots; 4.1 m/s)
Visibility: 6 or more miles (10+ km)
Ceiling: at least 12,000 feet AGL
Clouds: few clouds at 24000 feet AGL
Weather: no significant weather observed at this time

METAR text: ETHB 230020Z 16009KT 9999 FEW240 M04/M08 Q1001 BLU+
Conditions at: ETHB (BUCKEBURG(GER-AR, DE) observed 0020 UTC 23 January 2019
Temperature: -4.0°C (25°F)
Dewpoint: -8.0°C (18°F) [RH = 74%]
Pressure (altimeter): 29.56 inches Hg (1001.0 mb)
Winds: from the SSE (160 degrees) at 10 MPH (9 knots; 4.6 m/s)
Visibility: 6 or more miles (10+ km)
Ceiling: at least 12,000 feet AGL
Clouds: few clouds at 24000 feet AGL
Weather: no significant weather observed at this time

METAR text: ETHB 222320Z 17012KT 9999 SCT220 M04/M08 Q1002 BLU+
Conditions at: ETHB (BUCKEBURG(GER-AR, DE) observed 2320 UTC 22 January 2019
Temperature: -4.0°C (25°F)
Dewpoint: -8.0°C (18°F) [RH = 74%]
Pressure (altimeter): 29.59 inches Hg (1002.0 mb)
Winds: from the S (170 degrees) at 14 MPH (12 knots; 6.2 m/s)
Visibility: 6 or more miles (10+ km)
Ceiling: at least 12,000 feet AGL
Clouds: scattered clouds at 22000 feet AGL
Weather: no significant weather observed at this time

METAR text: ETHB 222220Z 17008KT 9999 BKN220 M04/M07 Q1002 BLU+
Conditions at: ETHB (BUCKEBURG(GER-AR, DE) observed 2220 UTC 22 January 2019
Temperature: -4.0°C (25°F)
Dewpoint: -7.0°C (19°F) [RH = 80%]
Pressure (altimeter): 29.59 inches Hg (1002.0 mb)
Winds: from the S (170 degrees) at 9 MPH (8 knots; 4.1 m/s)
Visibility: 6 or more miles (10+ km)
Ceiling: 22000 feet AGL
Clouds: broken clouds at 22000 feet AGL
Weather: no significant weather observed at this time

METAR text: ETHB 222120Z 17009KT 9999 BKN220 M04/M07 Q1003 BLU+FCST CANCEL
Conditions at: ETHB (BUCKEBURG(GER-AR, DE) observed 2120 UTC 22 January 2019
Temperature: -4.0°C (25°F)
Dewpoint: -7.0°C (19°F) [RH = 80%]
Pressure (altimeter): 29.62 inches Hg (1003.0 mb)
Winds: from the S (170 degrees) at 10 MPH (9 knots; 4.6 m/s)
Visibility: 6 or more miles (10+ km)
Ceiling: 22000 feet AGL
Clouds: broken clouds at 22000 feet AGL
Weather: no significant weather observed at this time

METAR text: ETHB 222020Z 16012KT 9999 FEW220 M04/M07 Q1003 BLU+BLU
Conditions at: ETHB (BUCKEBURG(GER-AR, DE) observed 2020 UTC 22 January 2019
Temperature: -4.0°C (25°F)
Dewpoint: -7.0°C (19°F) [RH = 80%]
Pressure (altimeter): 29.62 inches Hg (1003.0 mb)
Winds: from the SSE (160 degrees) at 14 MPH (12 knots; 6.2 m/s)
Visibility: 6 or more miles (10+ km)
Ceiling: at least 12,000 feet AGL
Clouds: few clouds at 22000 feet AGL
Weather: no significant weather observed at this time

METAR text: ETHB 221920Z 17011KT 9999 BKN200 M03/M07 Q1003 BLU+BLU
Conditions at: ETHB (BUCKEBURG(GER-AR, DE) observed 1920 UTC 22 January 2019
Temperature: -3.0°C (27°F)
Dewpoint: -7.0°C (19°F) [RH = 74%]
Pressure (altimeter): 29.62 inches Hg (1003.0 mb)
Winds: from the S (170 degrees) at 13 MPH (11 knots; 5.7 m/s)
Visibility: 6 or more miles (10+ km)
Ceiling: 20000 feet AGL
Clouds: broken clouds at 20000 feet AGL
Weather: no significant weather observed at this time

METAR text: ETHB 221820Z 16008KT 9999 BKN200 M03/M07 Q1003 BLU+BLU
Conditions at: ETHB (BUCKEBURG(GER-AR, DE) observed 1820 UTC 22 January 2019
Temperature: -3.0°C (27°F)
Dewpoint: -7.0°C (19°F) [RH = 74%]
Pressure (altimeter): 29.62 inches Hg (1003.0 mb)
Winds: from the SSE (160 degrees) at 9 MPH (8 knots; 4.1 m/s)
Visibility: 6 or more miles (10+ km)
Ceiling: 20000 feet AGL
Clouds: broken clouds at 20000 feet AGL
Weather: no significant weather observed at this time

METAR text: ETHB 221720Z 17016KT 9999 BKN200 M03/M07 Q1003 BLU+BLU
Conditions at: ETHB (BUCKEBURG(GER-AR, DE) observed 1720 UTC 22 January 2019
Temperature: -3.0°C (27°F)
Dewpoint: -7.0°C (19°F) [RH = 74%]
Pressure (altimeter): 29.62 inches Hg (1003.0 mb)
Winds: from the S (170 degrees) at 18 MPH (16 knots; 8.2 m/s)
Visibility: 6 or more miles (10+ km)
Ceiling: 20000 feet AGL
Clouds: broken clouds at 20000 feet AGL
Weather: no significant weather observed at this time

METAR text: ETHB 221620Z 17016KT 9999 BKN170 M02/M07 Q1003 BLU BLU
Conditions at: ETHB (BUCKEBURG(GER-AR, DE) observed 1620 UTC 22 January 2019
Temperature: -2.0°C (28°F)
Dewpoint: -7.0°C (19°F) [RH = 69%]
Pressure (altimeter): 29.62 inches Hg (1003.0 mb)
Winds: from the S (170 degrees) at 18 MPH (16 knots; 8.2 m/s)
Visibility: 6 or more miles (10+ km)
Ceiling: 17000 feet AGL
Clouds: broken clouds at 17000 feet AGL
Weather: no significant weather observed at this time

METAR text: ETHB 221520Z 17016KT 9999 FEW200 BKN250 M01/M07 Q1004 BLU+BLU
Conditions at: ETHB (BUCKEBURG(GER-AR, DE) observed 1520 UTC 22 January 2019
Temperature: -1.0°C (30°F)
Dewpoint: -7.0°C (19°F) [RH = 64%]
Pressure (altimeter): 29.65 inches Hg (1004.0 mb)
Winds: from the S (170 degrees) at 18 MPH (16 knots; 8.2 m/s)
Visibility: 6 or more miles (10+ km)
Ceiling: 25000 feet AGL
Clouds: few clouds at 20000 feet AGL
broken clouds at 25000 feet AGL
Weather: no significant weather observed at this time

METAR text: ETHB 221420Z 17015KT 9999 BKN170 M01/M06 Q1004 BLU BLU
Conditions at: ETHB (BUCKEBURG(GER-AR, DE) observed 1420 UTC 22 January 2019
Temperature: -1.0°C (30°F)
Dewpoint: -6.0°C (21°F) [RH = 69%]
Pressure (altimeter): 29.65 inches Hg (1004.0 mb)
Winds: from the S (170 degrees) at 17 MPH (15 knots; 7.7 m/s)
Visibility: 6 or more miles (10+ km)
Ceiling: 17000 feet AGL
Clouds: broken clouds at 17000 feet AGL
Weather: no significant weather observed at this time

METAR text: ETHB 221320Z 17016KT 9999 BKN160 M00/M07 Q1005 BLU BLU+
Conditions at: ETHB (BUCKEBURG(GER-AR, DE) observed 1320 UTC 22 January 2019
Temperature: 0.0°C (32°F)
Dewpoint: -7.0°C (19°F) [RH = 59%]
Pressure (altimeter): 29.68 inches Hg (1005.0 mb)
Winds: from the S (170 degrees) at 18 MPH (16 knots; 8.2 m/s)
Visibility: 6 or more miles (10+ km)
Ceiling: 16000 feet AGL
Clouds: broken clouds at 16000 feet AGL
Weather: no significant weather observed at this time

METAR text: ETHB 221220Z 17011KT 9999 BKN160 00/M07 Q1006 BLU BLU+
Conditions at: ETHB (BUCKEBURG(GER-AR, DE) observed 1220 UTC 22 January 2019
Temperature: 0.0°C (32°F)
Dewpoint: -7.0°C (19°F) [RH = 59%]
Pressure (altimeter): 29.70 inches Hg (1006.0 mb)
Winds: from the S (170 degrees) at 13 MPH (11 knots; 5.7 m/s)
Visibility: 6 or more miles (10+ km)
Ceiling: 16000 feet AGL
Clouds: broken clouds at 16000 feet AGL
Weather: no significant weather observed at this time

METAR text: ETHB 221120Z 16011KT 9999 BKN210 M00/M07 Q1008 BLU+BLU+
Conditions at: ETHB (BUCKEBURG(GER-AR, DE) observed 1120 UTC 22 January 2019
Temperature: 0.0°C (32°F)
Dewpoint: -7.0°C (19°F) [RH = 59%]
Pressure (altimeter): 29.76 inches Hg (1008.0 mb)
Winds: from the SSE (160 degrees) at 13 MPH (11 knots; 5.7 m/s)
Visibility: 6 or more miles (10+ km)
Ceiling: 21000 feet AGL
Clouds: broken clouds at 21000 feet AGL
Weather: no significant weather observed at this time

METAR text: ETHB 221020Z 16009KT 9999 BKN190 M01/M08 Q1009 BLU BLU+
Conditions at: ETHB (BUCKEBURG(GER-AR, DE) observed 1020 UTC 22 January 2019
Temperature: -1.0°C (30°F)
Dewpoint: -8.0°C (18°F) [RH = 59%]
Pressure (altimeter): 29.79 inches Hg (1009.0 mb)
Winds: from the SSE (160 degrees) at 10 MPH (9 knots; 4.6 m/s)
Visibility: 6 or more miles (10+ km)
Ceiling: 19000 feet AGL
Clouds: broken clouds at 19000 feet AGL
Weather: no significant weather observed at this time

METAR text: ETHB 220920Z 16012KT 9999 FEW150 SCT220 M03/M08 Q1009 BLU+BLU+
Conditions at: ETHB (BUCKEBURG(GER-AR, DE) observed 0920 UTC 22 January 2019
Temperature: -3.0°C (27°F)
Dewpoint: -8.0°C (18°F) [RH = 68%]
Pressure (altimeter): 29.79 inches Hg (1009.0 mb)
Winds: from the SSE (160 degrees) at 14 MPH (12 knots; 6.2 m/s)
Visibility: 6 or more miles (10+ km)
Ceiling: at least 12,000 feet AGL
Clouds: few clouds at 15000 feet AGL
scattered clouds at 22000 feet AGL
Weather: no significant weather observed at this time

METAR text: ETHB 220820Z 17011KT 9999 FEW150 SCT230 M03/M08 Q1010 BLU+BLU+
Conditions at: ETHB (BUCKEBURG(GER-AR, DE) observed 0820 UTC 22 January 2019
Temperature: -3.0°C (27°F)
Dewpoint: -8.0°C (18°F) [RH = 68%]
Pressure (altimeter): 29.82 inches Hg (1010.0 mb)
Winds: from the S (170 degrees) at 13 MPH (11 knots; 5.7 m/s)
Visibility: 6 or more miles (10+ km)
Ceiling: at least 12,000 feet AGL
Clouds: few clouds at 15000 feet AGL
scattered clouds at 23000 feet AGL
Weather: no significant weather observed at this time

METAR text: ETHB 220720Z 17010KT 9999 SCT220 M04/M09 Q1011 BLU+BLU+
Conditions at: ETHB (BUCKEBURG(GER-AR, DE) observed 0720 UTC 22 January 2019
Temperature: -4.0°C (25°F)
Dewpoint: -9.0°C (16°F) [RH = 68%]
Pressure (altimeter): 29.85 inches Hg (1011.0 mb)
Winds: from the S (170 degrees) at 12 MPH (10 knots; 5.1 m/s)
Visibility: 6 or more miles (10+ km)
Ceiling: at least 12,000 feet AGL
Clouds: scattered clouds at 22000 feet AGL
Weather: no significant weather observed at this time

METAR text: ETHB 220620Z 18009KT 9000 SCT210 M04/M08 Q1011 BLU+BLU+
Conditions at: ETHB (BUCKEBURG(GER-AR, DE) observed 0620 UTC 22 January 2019
Temperature: -4.0°C (25°F)
Dewpoint: -8.0°C (18°F) [RH = 74%]
Pressure (altimeter): 29.85 inches Hg (1011.0 mb)
Winds: from the S (180 degrees) at 10 MPH (9 knots; 4.6 m/s)
Visibility: 6 miles ( 9 km)
Ceiling: at least 12,000 feet AGL
Clouds: scattered clouds at 21000 feet AGL
Weather: no significant weather observed at this time

METAR text: ETHB 220520Z 19010KT 9000 SCT210 M04/M08 Q1012 BLU+BLU+
Conditions at: ETHB (BUCKEBURG(GER-AR, DE) observed 0520 UTC 22 January 2019
Temperature: -4.0°C (25°F)
Dewpoint: -8.0°C (18°F) [RH = 74%]
Pressure (altimeter): 29.88 inches Hg (1012.0 mb)
Winds: from the S (190 degrees) at 12 MPH (10 knots; 5.1 m/s)
Visibility: 6 miles ( 9 km)
Ceiling: at least 12,000 feet AGL
Clouds: scattered clouds at 21000 feet AGL
Weather: no significant weather observed at this time

METAR text: ETHB 220420Z 18009KT 9999 FEW140 SCT200 M04/M07 Q1013 BLU+
Conditions at: ETHB (BUCKEBURG(GER-AR, DE) observed 0420 UTC 22 January 2019
Temperature: -4.0°C (25°F)
Dewpoint: -7.0°C (19°F) [RH = 80%]
Pressure (altimeter): 29.91 inches Hg (1013.0 mb)
Winds: from the S (180 degrees) at 10 MPH (9 knots; 4.6 m/s)
Visibility: 6 or more miles (10+ km)
Ceiling: at least 12,000 feet AGL
Clouds: few clouds at 14000 feet AGL
scattered clouds at 20000 feet AGL
Weather: no significant weather observed at this time

Forecast for: ETHB (BUCKEBURG(GER-AR, DE)
Text: TAF ETHB 231409Z 2315/2324 08007KT 8000 NSW SCT020 BKN120
Forecast period: 1500 to 1700 UTC 23 January 2019
Forecast type: FROM: standard forecast or significant change
Winds: from the E (80 degrees) at 8 MPH (7 knots; 3.6 m/s)
Visibility: 5 miles (8 km)
Ceiling: 12000 feet AGL
Clouds: scattered clouds at 2000 feet AGL
broken clouds at 12000 feet AGL
Weather: NSW  (no significant weather)
Text: TEMPO 2315/2317 07005KT 4000 HZ BKN012
Forecast period: 1500 to 1700 UTC 23 January 2019
Forecast type: TEMPORARY: The following changes expected for less than half the time period
Winds: from the ENE (70 degrees) at 6 MPH (5 knots; 2.6 m/s)
Visibility: 2.49 miles (4.01 km)
Ceiling: 1200 feet AGL
Clouds: broken clouds at 1200 feet AGL
Weather: HZ  (haze)
Text: BECMG 2317/2319 07007KT 5000 BR SCT120 BKN220
Forecast period: 1700 UTC 23 January 2019 to 0000 UTC 24 January 2019
Forecast type: BECOMING: Conditions expected to become as follows by 1900 UTC 23 January 2019
Winds: from the ENE (70 degrees) at 8 MPH (7 knots; 3.6 m/s)
Visibility: 3 miles (5 km)
Ceiling: 22000 feet AGL
Clouds: scattered clouds at 12000 feet AGL
broken clouds at 22000 feet AGL
Weather: BR  (mist)
Text: TEMPO 2319/2324 07004KT 3000 BR BKN012 BKN220
Forecast period: 1900 UTC 23 January 2019 to 0000 UTC 24 January 2019
Forecast type: TEMPORARY: The following changes expected for less than half the time period
Winds: from the ENE (70 degrees) at 5 MPH (4 knots; 2.1 m/s)
Visibility: 1.86 miles (2.99 km)
Ceiling: 1200 feet AGL
Clouds: broken clouds at 1200 feet AGL
broken clouds at 22000 feet AGL
Weather: BR  (mist)